Schedule Details


Flight Number: CTN4491
Departure: Heathrow (EGLL) at 17:00
Arrival: Franjo Tudman (LDZA) at 20:15
Route: DET UL6 DVR L9 KONAN UL607 KOK UM150 PITES UZ380 MAH Y161 MUN UM867 VAROB DCT PIKIT DCT ARGOM

Weather Information
EGLL 290050Z AUTO 23009KT 9999 NCD 03/01 Q1004 NOSIG
LDZA 290030Z VRB02KT 9999 -RA SCT007 OVC037 02/01 Q1008 TEMPO -TSRA BKN008 FEW040CB
Schedule Frequency

Route Map